KGEY/GEY METAR and TAF weather

Enter ICAO airport designator
Station Type Date Time Source
KGEY METAR 2022/09/26 09:53 UTC NOAA

KGEY 260953Z AUTO 00000KT 10SM CLR 08/03 A3024 RMK AO2 SLP220 T00830033


Station Type Date Time Source
KGEY Decoded METAR 2022/09/26 09:53 UTC NOAA

SOUTH BIG HORN COUNTY AIRPORT , WY, United States (KGEY) 44-31N 108-05W 1191M
Sep 26, 2022 - 05:53 AM EDT / 2022.09.26 0953 UTC
Wind: Calm:0
Visibility: 10 mile(s):0
Sky conditions: clear
Temperature: 46.9 F (8.3 C)
Dew Point: 37.9 F (3.3 C)
Relative Humidity: 70%
Pressure (altimeter): 30.24 in. Hg (1024 hPa)
ob: KGEY 260953Z AUTO 00000KT 10SM CLR 08/03 A3024 RMK AO2 SLP220 T00830033
cycle: 10

Station Type Date Time Source
KGEY TAF UTC NOAA

Error!

Example: see airport list